createdAt,value
2018-12-20T00:00:55.716Z,4.87
2018-12-20T00:01:58.289Z,4.57
2018-12-20T00:03:00.762Z,4.77
2018-12-20T00:04:03.258Z,4.20
2018-12-20T00:05:05.836Z,4.50
2018-12-20T00:06:08.450Z,4.07
2018-12-20T00:07:10.986Z,4.83
2018-12-20T00:08:13.532Z,3.90
2018-12-20T00:09:16.088Z,3.80
2018-12-20T00:10:18.651Z,4.13
2018-12-20T00:11:21.171Z,4.00
2018-12-20T00:12:24.093Z,4.73
2018-12-20T00:13:26.566Z,4.30
2018-12-20T00:14:30.092Z,3.60
2018-12-20T00:15:32.807Z,3.73
2018-12-20T00:16:35.278Z,4.67
2018-12-20T00:17:43.660Z,3.90
2018-12-20T00:18:46.199Z,4.00
2018-12-20T00:19:48.695Z,4.23
2018-12-20T00:20:51.166Z,4.20
2018-12-20T00:21:53.755Z,4.07
2018-12-20T00:22:56.266Z,3.93
2018-12-20T00:23:58.762Z,4.23
2018-12-20T00:25:01.364Z,4.00
2018-12-20T00:26:03.921Z,4.30
2018-12-20T00:27:06.632Z,4.33
2018-12-20T00:28:09.121Z,4.43
2018-12-20T00:29:11.772Z,4.03
2018-12-20T00:30:14.548Z,4.00
2018-12-20T00:31:17.092Z,3.90
2018-12-20T00:32:19.746Z,3.60
2018-12-20T00:33:22.374Z,3.80
2018-12-20T00:34:24.866Z,3.67
2018-12-20T00:35:27.465Z,3.90
2018-12-20T00:36:30.175Z,4.00
2018-12-20T00:37:33.016Z,3.70
2018-12-20T00:38:35.707Z,3.67
2018-12-20T00:39:38.378Z,3.67
2018-12-20T00:40:40.950Z,4.27
2018-12-20T00:41:43.560Z,4.03
2018-12-20T00:42:46.161Z,4.30
2018-12-20T00:43:48.940Z,3.63
2018-12-20T00:44:51.536Z,3.60
2018-12-20T00:45:54.034Z,3.83
2018-12-20T00:46:56.558Z,3.87
2018-12-20T00:47:59.030Z,3.70
2018-12-20T00:49:01.541Z,3.83
2018-12-20T00:50:05.001Z,4.37
2018-12-20T00:51:07.749Z,3.37
2018-12-20T00:52:10.452Z,3.80
2018-12-20T00:53:13.054Z,3.47
2018-12-20T00:54:15.543Z,3.20
2018-12-20T00:55:18.050Z,3.63
2018-12-20T00:56:20.631Z,3.87
2018-12-20T00:57:23.270Z,3.37
2018-12-20T00:58:25.996Z,3.47
2018-12-20T00:59:28.722Z,3.30
2018-12-20T01:00:31.277Z,3.90
2018-12-20T01:01:33.937Z,3.57
2018-12-20T01:02:36.521Z,3.40
2018-12-20T01:03:38.985Z,3.63
2018-12-20T01:04:41.455Z,3.53
2018-12-20T01:05:44.215Z,3.50
2018-12-20T01:06:46.941Z,3.67
2018-12-20T01:07:49.589Z,3.10
2018-12-20T01:08:52.300Z,3.60
2018-12-20T01:09:54.843Z,3.40
2018-12-20T01:10:57.437Z,3.87
2018-12-20T01:12:00.075Z,3.53
2018-12-20T01:13:02.798Z,3.90
2018-12-20T01:14:06.168Z,3.73
2018-12-20T01:15:08.807Z,2.90
2018-12-20T01:16:11.441Z,3.50
2018-12-20T01:17:14.014Z,3.00
2018-12-20T01:18:16.533Z,3.50
2018-12-20T01:19:19.267Z,3.23
2018-12-20T01:20:21.866Z,3.47
2018-12-20T01:21:24.352Z,3.53
2018-12-20T01:22:26.859Z,3.40
2018-12-20T01:23:29.532Z,3.80
2018-12-20T01:24:32.011Z,3.70
2018-12-20T01:25:34.674Z,4.17
2018-12-20T01:26:37.290Z,3.43
2018-12-20T01:27:39.923Z,2.70
2018-12-20T01:28:42.633Z,3.53
2018-12-20T01:29:45.199Z,3.40
2018-12-20T01:30:47.817Z,4.10
2018-12-20T01:31:50.527Z,2.77
2018-12-20T01:32:53.104Z,3.90
2018-12-20T01:33:55.735Z,3.70
2018-12-20T01:34:58.314Z,3.50
2018-12-20T01:36:00.895Z,3.37
2018-12-20T01:37:03.517Z,3.43
2018-12-20T01:38:06.080Z,3.10
2018-12-20T01:39:08.587Z,3.30
2018-12-20T01:40:11.186Z,3.17
2018-12-20T01:41:13.648Z,3.43
2018-12-20T01:42:16.115Z,3.40
2018-12-20T01:43:18.606Z,2.60
2018-12-20T01:44:21.103Z,3.67
2018-12-20T01:45:23.742Z,3.17
2018-12-20T01:46:26.452Z,3.17
2018-12-20T01:47:29.122Z,3.47
2018-12-20T01:48:31.739Z,3.33
2018-12-20T01:49:34.279Z,3.20
2018-12-20T01:50:36.764Z,3.30
2018-12-20T01:51:39.383Z,2.93
2018-12-20T01:52:41.951Z,3.53
2018-12-20T01:53:44.704Z,2.83
2018-12-20T01:54:47.402Z,3.17
2018-12-20T01:55:49.956Z,2.70
2018-12-20T01:56:52.452Z,3.00
2018-12-20T01:57:54.944Z,2.87
2018-12-20T01:58:57.454Z,2.70
2018-12-20T02:00:00.148Z,3.33
2018-12-20T02:01:02.744Z,2.90
2018-12-20T02:02:05.381Z,3.10
2018-12-20T02:03:07.929Z,2.90
2018-12-20T02:04:10.428Z,3.10
2018-12-20T02:05:13.053Z,2.90
2018-12-20T02:06:15.674Z,2.90
2018-12-20T02:07:18.310Z,3.30
2018-12-20T02:08:20.918Z,3.30
2018-12-20T02:09:23.476Z,2.53
2018-12-20T02:10:26.100Z,2.87
2018-12-20T02:11:28.817Z,3.30
2018-12-20T02:12:31.353Z,2.70
2018-12-20T02:13:33.982Z,2.90
2018-12-20T02:14:36.759Z,2.80
2018-12-20T02:15:39.284Z,3.20
2018-12-20T02:16:41.760Z,2.80
2018-12-20T02:17:44.293Z,3.00
2018-12-20T02:18:46.888Z,2.60
2018-12-20T02:19:49.510Z,3.00
2018-12-20T02:20:52.117Z,2.30
2018-12-20T02:21:54.866Z,3.00
2018-12-20T02:22:57.689Z,3.20
2018-12-20T02:24:00.306Z,2.93
2018-12-20T02:25:02.921Z,2.90
2018-12-20T02:26:05.462Z,2.60
2018-12-20T02:27:08.053Z,3.20
2018-12-20T02:28:10.567Z,2.63
2018-12-20T02:29:13.071Z,2.70
2018-12-20T02:30:15.643Z,3.23
2018-12-20T02:31:18.264Z,3.00
2018-12-20T02:32:20.905Z,3.23
2018-12-20T02:33:23.828Z,2.70
2018-12-20T02:34:26.823Z,2.60
2018-12-20T02:35:29.751Z,2.70
2018-12-20T02:36:32.578Z,2.87
2018-12-20T02:37:35.343Z,3.00
2018-12-20T02:38:37.913Z,2.60
2018-12-20T02:39:40.569Z,2.77
2018-12-20T02:40:43.095Z,2.57
2018-12-20T02:41:45.584Z,2.50
2018-12-20T02:42:48.058Z,2.50
2018-12-20T02:43:50.556Z,2.73
2018-12-20T02:44:53.118Z,2.40
2018-12-20T02:45:55.665Z,2.50
2018-12-20T02:46:58.129Z,3.30
2018-12-20T02:48:00.607Z,2.70
2018-12-20T02:49:03.530Z,2.30
2018-12-20T02:50:06.280Z,2.80
2018-12-20T02:51:08.862Z,3.03
2018-12-20T02:52:11.632Z,2.40
2018-12-20T02:53:14.260Z,3.00
2018-12-20T02:54:16.766Z,2.90
2018-12-20T02:55:19.279Z,3.10
2018-12-20T02:56:21.882Z,2.43
2018-12-20T02:57:24.788Z,2.90
2018-12-20T02:58:27.607Z,2.43
2018-12-20T02:59:30.295Z,2.33
2018-12-20T03:00:32.996Z,2.50
2018-12-20T03:01:35.501Z,2.23
2018-12-20T03:02:38.100Z,3.20
2018-12-20T03:03:40.856Z,2.97
2018-12-20T03:04:43.620Z,2.97
2018-12-20T03:05:46.509Z,2.63
2018-12-20T03:06:49.214Z,2.30
2018-12-20T03:07:51.813Z,2.33
2018-12-20T03:08:54.484Z,2.37
2018-12-20T03:09:57.168Z,2.60
2018-12-20T03:10:59.835Z,2.30
2018-12-20T03:12:02.423Z,2.33
2018-12-20T03:13:05.140Z,2.73
2018-12-20T03:14:07.711Z,2.30
2018-12-20T03:15:10.311Z,2.27
2018-12-20T03:16:14.625Z,2.37
2018-12-20T03:17:17.461Z,2.57
2018-12-20T03:18:20.189Z,2.33
2018-12-20T03:19:22.861Z,2.30
2018-12-20T03:20:25.659Z,2.10
2018-12-20T03:21:28.324Z,3.00
2018-12-20T03:22:30.902Z,2.40
2018-12-20T03:23:33.521Z,2.53
2018-12-20T03:24:36.122Z,2.80
2018-12-20T03:25:38.755Z,2.50
2018-12-20T03:26:41.513Z,2.20
2018-12-20T03:27:44.265Z,2.57
2018-12-20T03:28:46.839Z,2.23
2018-12-20T03:29:49.488Z,2.17
2018-12-20T03:30:52.479Z,2.10
2018-12-20T03:31:55.191Z,2.37
2018-12-20T03:32:58.181Z,2.23
2018-12-20T03:34:00.929Z,2.53
2018-12-20T03:35:03.555Z,2.33
2018-12-20T03:36:06.101Z,2.17
2018-12-20T03:37:08.716Z,2.70
2018-12-20T03:38:11.232Z,2.07
2018-12-20T03:39:13.757Z,2.47
2018-12-20T03:40:16.325Z,2.30
2018-12-20T03:41:18.841Z,2.47
2018-12-20T03:42:21.319Z,2.67
2018-12-20T03:43:23.922Z,2.33
2018-12-20T03:44:26.536Z,2.23
2018-12-20T03:45:29.369Z,2.03
2018-12-20T03:46:32.071Z,2.23
2018-12-20T03:47:34.594Z,2.17
2018-12-20T03:48:37.337Z,2.20
2018-12-20T03:49:39.933Z,2.53
2018-12-20T03:50:42.410Z,2.20
2018-12-20T03:51:45.066Z,2.40
2018-12-20T03:52:47.766Z,2.20
2018-12-20T03:53:50.556Z,2.50
2018-12-20T03:54:53.566Z,2.20
2018-12-20T03:55:56.392Z,2.20
2018-12-20T03:56:59.180Z,2.07
2018-12-20T03:58:01.875Z,2.17
2018-12-20T03:59:04.546Z,2.40
2018-12-20T04:00:07.861Z,2.13
2018-12-20T04:01:10.420Z,2.40
2018-12-20T04:02:13.139Z,2.60
2018-12-20T04:03:15.863Z,2.00
2018-12-20T04:04:18.617Z,2.00
2018-12-20T04:05:21.393Z,2.33
2018-12-20T04:06:23.988Z,2.20
2018-12-20T04:07:26.573Z,2.40
2018-12-20T04:08:29.216Z,2.17
2018-12-20T04:09:31.746Z,2.03
2018-12-20T04:10:34.248Z,2.30
2018-12-20T04:11:36.992Z,1.90
2018-12-20T04:12:39.771Z,2.10
2018-12-20T04:13:42.425Z,1.90
2018-12-20T04:14:45.099Z,1.83
2018-12-20T04:15:47.706Z,2.10
2018-12-20T04:16:50.269Z,2.13
2018-12-20T04:17:52.831Z,2.20
2018-12-20T04:18:55.333Z,2.00
2018-12-20T04:19:57.897Z,2.27
2018-12-20T04:21:00.621Z,2.10
2018-12-20T04:22:03.198Z,1.80
2018-12-20T04:23:06.031Z,2.00
2018-12-20T04:24:08.845Z,1.87
2018-12-20T04:25:11.482Z,2.00
2018-12-20T04:26:14.092Z,2.30
2018-12-20T04:27:16.818Z,2.07
2018-12-20T04:28:19.457Z,2.20
2018-12-20T04:29:22.171Z,2.20
2018-12-20T04:30:24.812Z,2.10
2018-12-20T04:31:27.404Z,2.20
2018-12-20T04:32:30.137Z,2.20
2018-12-20T04:33:32.705Z,1.83
2018-12-20T04:34:35.192Z,2.10
2018-12-20T04:35:37.688Z,2.00
2018-12-20T04:36:40.166Z,1.87
2018-12-20T04:37:42.903Z,2.20
2018-12-20T04:38:45.713Z,1.93
2018-12-20T04:39:48.451Z,2.20
2018-12-20T04:40:51.122Z,2.10
2018-12-20T04:41:53.687Z,2.00
2018-12-20T04:42:56.300Z,1.67
2018-12-20T04:43:58.978Z,1.87
2018-12-20T04:45:01.524Z,2.10
2018-12-20T04:46:04.207Z,2.27
2018-12-20T04:47:06.819Z,2.03
2018-12-20T04:48:09.306Z,1.70
2018-12-20T04:49:11.825Z,2.20
2018-12-20T04:50:14.567Z,1.80
2018-12-20T04:51:17.380Z,2.00
2018-12-20T04:52:20.021Z,2.00
2018-12-20T04:53:22.571Z,1.97
2018-12-20T04:54:25.254Z,1.70
2018-12-20T04:55:28.077Z,1.90
2018-12-20T04:56:30.917Z,1.80
2018-12-20T04:57:33.861Z,2.00
2018-12-20T04:58:36.785Z,1.90
2018-12-20T04:59:39.418Z,2.17
2018-12-20T05:00:41.956Z,1.73
2018-12-20T05:01:44.776Z,1.80
2018-12-20T05:02:47.414Z,1.90
2018-12-20T05:03:49.920Z,1.80
2018-12-20T05:04:52.502Z,1.80
2018-12-20T05:05:55.129Z,1.87
2018-12-20T05:06:57.780Z,1.87
2018-12-20T05:08:00.434Z,1.90
2018-12-20T05:09:04.785Z,1.23
2018-12-20T05:10:07.531Z,1.90
2018-12-20T05:11:10.114Z,1.53
2018-12-20T05:12:12.607Z,1.93
2018-12-20T05:13:15.186Z,1.90
2018-12-20T05:14:17.639Z,1.80
2018-12-20T05:15:20.305Z,1.77
2018-12-20T05:16:23.090Z,1.70
2018-12-20T05:17:25.602Z,1.80
2018-12-20T05:18:28.355Z,1.57
2018-12-20T05:19:31.197Z,2.00
2018-12-20T05:20:33.765Z,1.70
2018-12-20T05:21:36.448Z,1.60
2018-12-20T05:22:39.076Z,1.90
2018-12-20T05:23:41.576Z,1.87
2018-12-20T05:24:44.301Z,1.80
2018-12-20T05:25:47.036Z,1.37
2018-12-20T05:26:49.815Z,2.00
2018-12-20T05:27:51.904Z,1.90
2018-12-20T05:28:54.582Z,1.73
2018-12-20T05:29:57.464Z,1.80
2018-12-20T05:31:00.313Z,1.60
2018-12-20T05:32:03.035Z,2.10
2018-12-20T05:33:05.635Z,1.80
2018-12-20T05:34:08.311Z,1.60
2018-12-20T05:35:11.086Z,1.77
2018-12-20T05:36:13.749Z,1.70
2018-12-20T05:37:16.231Z,1.80
2018-12-20T05:38:18.719Z,1.60
2018-12-20T05:39:21.538Z,1.60
2018-12-20T05:40:24.191Z,1.83
2018-12-20T05:41:27.014Z,1.60
2018-12-20T05:42:29.553Z,1.40
2018-12-20T05:43:32.157Z,1.90
2018-12-20T05:44:34.862Z,1.90
2018-12-20T05:45:37.453Z,2.07
2018-12-20T05:46:40.081Z,1.53
2018-12-20T05:47:42.824Z,1.80
2018-12-20T05:48:45.473Z,2.10
2018-12-20T05:49:48.090Z,1.87
2018-12-20T05:50:50.788Z,1.57
2018-12-20T05:51:53.465Z,2.10
2018-12-20T05:52:55.928Z,1.83
2018-12-20T05:53:58.400Z,1.70
2018-12-20T05:55:01.437Z,1.57
2018-12-20T05:56:04.089Z,1.70
2018-12-20T05:57:06.782Z,1.63
2018-12-20T05:58:09.397Z,2.00
2018-12-20T05:59:11.908Z,1.70
2018-12-20T06:00:14.500Z,2.00
2018-12-20T06:01:16.978Z,1.77
2018-12-20T06:02:19.485Z,2.20
2018-12-20T06:03:22.076Z,1.67
2018-12-20T06:04:24.726Z,2.00
2018-12-20T06:05:27.350Z,1.80
2018-12-20T06:06:29.838Z,1.80
2018-12-20T06:07:32.363Z,1.67
2018-12-20T06:08:35.103Z,2.17
2018-12-20T06:09:37.878Z,1.73
2018-12-20T06:10:40.685Z,1.80
2018-12-20T06:11:43.542Z,1.80
2018-12-20T06:12:46.179Z,1.50
2018-12-20T06:13:48.658Z,2.00
2018-12-20T06:14:51.116Z,1.50
2018-12-20T06:15:53.590Z,1.63
2018-12-20T06:16:56.048Z,1.53
2018-12-20T06:17:58.574Z,1.70
2018-12-20T06:19:01.231Z,1.90
2018-12-20T06:20:04.680Z,1.60
2018-12-20T06:21:07.195Z,1.40
2018-12-20T06:22:09.782Z,2.13
2018-12-20T06:23:12.356Z,1.63
2018-12-20T06:24:14.818Z,1.67
2018-12-20T06:25:17.296Z,1.40
2018-12-20T06:26:19.819Z,1.70
2018-12-20T06:27:22.276Z,2.20
2018-12-20T06:28:24.785Z,1.70
2018-12-20T06:29:27.262Z,1.60
2018-12-20T06:30:29.730Z,1.70
2018-12-20T06:31:32.210Z,1.90
2018-12-20T06:32:34.696Z,1.77
2018-12-20T06:33:37.201Z,1.43
2018-12-20T06:34:39.754Z,1.60
2018-12-20T06:35:42.228Z,1.70
2018-12-20T06:36:44.690Z,1.43
2018-12-20T06:37:47.184Z,1.70
2018-12-20T06:38:49.705Z,1.80
2018-12-20T06:39:52.188Z,1.60
2018-12-20T06:40:54.653Z,2.00
2018-12-20T06:41:57.214Z,1.80
2018-12-20T06:42:59.882Z,1.70
2018-12-20T06:44:07.078Z,1.73
2018-12-20T06:45:06.988Z,1.90
2018-12-20T06:46:09.524Z,1.57
2018-12-20T06:47:12.068Z,1.80
2018-12-20T06:48:14.550Z,2.10
2018-12-20T06:49:17.134Z,1.90
2018-12-20T06:50:19.611Z,2.00
2018-12-20T06:51:22.072Z,1.90
2018-12-20T06:52:24.616Z,2.00
2018-12-20T06:53:27.096Z,2.10
2018-12-20T06:54:29.591Z,2.00
2018-12-20T06:55:32.085Z,2.00
2018-12-20T06:56:34.554Z,2.10
2018-12-20T06:57:37.034Z,1.90
2018-12-20T06:58:39.510Z,2.00
2018-12-20T06:59:42.127Z,1.90
2018-12-20T07:00:44.622Z,1.87
2018-12-20T07:01:47.085Z,1.70
2018-12-20T07:02:49.581Z,2.30
2018-12-20T07:03:52.073Z,2.50
2018-12-20T07:04:54.547Z,1.60
2018-12-20T07:05:57.022Z,2.33
2018-12-20T07:06:59.503Z,1.70
2018-12-20T07:08:01.959Z,2.40
2018-12-20T07:09:07.266Z,1.83
2018-12-20T07:10:09.772Z,1.93
2018-12-20T07:11:12.234Z,1.87
2018-12-20T07:12:14.721Z,2.00
2018-12-20T07:13:17.207Z,1.97
2018-12-20T07:14:19.754Z,1.80
2018-12-20T07:15:22.227Z,1.87
2018-12-20T07:16:29.320Z,2.33
2018-12-20T07:17:29.217Z,2.10
2018-12-20T07:18:31.710Z,2.07
2018-12-20T07:19:34.205Z,2.20
2018-12-20T07:20:36.702Z,2.00
2018-12-20T07:21:39.171Z,2.23
2018-12-20T07:22:41.657Z,2.07
2018-12-20T07:23:44.124Z,1.90
2018-12-20T07:24:46.579Z,1.87
2018-12-20T07:25:49.056Z,2.17
2018-12-20T07:26:51.520Z,2.17
2018-12-20T07:27:53.995Z,2.17
2018-12-20T07:28:56.460Z,2.23
2018-12-20T07:29:58.915Z,1.90
2018-12-20T07:31:01.430Z,1.43
2018-12-20T07:32:03.922Z,1.83
2018-12-20T07:33:06.380Z,1.87
2018-12-20T07:34:09.132Z,2.27
2018-12-20T07:35:11.620Z,1.80
2018-12-20T07:36:14.128Z,1.50
2018-12-20T07:37:16.623Z,1.77
2018-12-20T07:38:19.102Z,1.53
2018-12-20T07:39:21.557Z,2.00
2018-12-20T07:40:24.053Z,1.60
2018-12-20T07:41:26.539Z,1.77
2018-12-20T07:42:28.997Z,1.53
2018-12-20T07:43:31.477Z,1.70
2018-12-20T07:44:33.954Z,1.70
2018-12-20T07:45:36.408Z,1.67
2018-12-20T07:46:38.904Z,1.70
2018-12-20T07:47:41.397Z,1.80
2018-12-20T07:48:43.885Z,1.63
2018-12-20T07:49:46.344Z,1.70
2018-12-20T07:50:48.832Z,1.37
2018-12-20T07:51:51.330Z,1.63
2018-12-20T07:52:53.820Z,1.73
2018-12-20T07:53:56.302Z,1.80
2018-12-20T07:54:58.771Z,1.57
2018-12-20T07:56:01.253Z,1.67
2018-12-20T07:57:03.739Z,1.80
2018-12-20T07:58:06.201Z,1.97
2018-12-20T07:59:08.688Z,1.30
2018-12-20T08:00:11.294Z,1.60
2018-12-20T08:01:13.770Z,1.70
2018-12-20T08:02:16.265Z,1.50
2018-12-20T08:03:18.739Z,1.63
2018-12-20T08:04:21.211Z,1.53
2018-12-20T08:05:23.709Z,1.70
2018-12-20T08:06:26.178Z,1.07
2018-12-20T08:07:28.656Z,1.70
2018-12-20T08:08:31.119Z,1.50
2018-12-20T08:09:33.595Z,1.67
2018-12-20T08:10:36.074Z,1.60
2018-12-20T08:11:38.550Z,1.60
2018-12-20T08:12:41.064Z,1.43
2018-12-20T08:13:43.526Z,1.70
2018-12-20T08:14:45.999Z,1.53
2018-12-20T08:15:50.588Z,1.80
2018-12-20T08:16:52.990Z,1.73
2018-12-20T08:17:55.483Z,1.60
2018-12-20T08:18:57.959Z,1.70
2018-12-20T08:20:00.432Z,1.77
2018-12-20T08:21:02.985Z,1.50
2018-12-20T08:22:05.482Z,1.60
2018-12-20T08:23:07.956Z,1.47
2018-12-20T08:24:10.422Z,1.50
2018-12-20T08:25:12.914Z,1.67
2018-12-20T08:26:15.391Z,1.90
2018-12-20T08:27:18.234Z,1.83
2018-12-20T08:28:20.731Z,1.40
2018-12-20T08:29:23.207Z,1.30
2018-12-20T08:30:25.682Z,1.30
2018-12-20T08:31:28.174Z,1.50
2018-12-20T08:32:30.635Z,1.57
2018-12-20T08:33:33.127Z,1.47
2018-12-20T08:34:35.599Z,1.80
2018-12-20T08:35:38.074Z,1.60
2018-12-20T08:36:40.551Z,1.43
2018-12-20T08:37:43.054Z,1.83
2018-12-20T08:38:45.569Z,1.30
2018-12-20T08:39:48.050Z,1.30
2018-12-20T08:40:50.526Z,1.50
2018-12-20T08:41:53.013Z,1.40
2018-12-20T08:42:55.490Z,1.30
2018-12-20T08:43:57.991Z,1.70
2018-12-20T08:45:00.481Z,1.37
2018-12-20T08:46:03.049Z,1.70
2018-12-20T08:47:05.526Z,1.40
2018-12-20T08:48:08.013Z,1.60
2018-12-20T08:49:10.495Z,1.50
2018-12-20T08:50:12.954Z,1.60
2018-12-20T08:51:15.440Z,1.53
2018-12-20T08:52:17.916Z,1.57
2018-12-20T08:53:20.396Z,1.50
2018-12-20T08:54:22.905Z,1.40
2018-12-20T08:55:25.468Z,1.60
2018-12-20T08:56:27.942Z,1.50
2018-12-20T08:57:30.422Z,1.57
2018-12-20T08:58:32.913Z,1.50
2018-12-20T08:59:35.421Z,1.30
2018-12-20T09:00:37.916Z,1.33
2018-12-20T09:01:40.394Z,1.60
2018-12-20T09:02:42.855Z,1.43
2018-12-20T09:03:45.322Z,1.40
2018-12-20T09:04:48.583Z,1.57
2018-12-20T09:05:51.055Z,2.00
2018-12-20T09:06:53.508Z,1.77
2018-12-20T09:07:55.964Z,1.80
2018-12-20T09:08:58.419Z,1.47
2018-12-20T09:10:00.913Z,1.20
2018-12-20T09:11:03.403Z,1.30
2018-12-20T09:12:05.897Z,1.30
2018-12-20T09:13:09.742Z,1.60
2018-12-20T09:14:12.682Z,1.60
2018-12-20T09:15:15.174Z,1.77
2018-12-20T09:16:17.631Z,1.70
2018-12-20T09:17:20.103Z,1.27
2018-12-20T09:18:22.595Z,1.57
2018-12-20T09:19:25.069Z,1.20
2018-12-20T09:20:32.705Z,1.53
2018-12-20T09:21:32.039Z,1.80
2018-12-20T09:22:34.501Z,1.50
2018-12-20T09:23:36.988Z,1.40
2018-12-20T09:24:39.462Z,1.50
2018-12-20T09:25:41.968Z,1.40
2018-12-20T09:26:44.423Z,1.20
2018-12-20T09:27:46.880Z,1.40
2018-12-20T09:28:49.359Z,1.20
2018-12-20T09:29:51.840Z,1.60
2018-12-20T09:30:54.334Z,1.43
2018-12-20T09:31:56.791Z,1.40
2018-12-20T09:32:59.332Z,1.20
2018-12-20T09:34:01.846Z,1.30
2018-12-20T09:35:04.839Z,1.50
2018-12-20T09:36:07.326Z,1.33
2018-12-20T09:37:09.821Z,1.40
2018-12-20T09:38:12.294Z,1.17
2018-12-20T09:39:14.747Z,1.20
2018-12-20T09:40:17.218Z,1.30
2018-12-20T09:41:19.731Z,1.20
2018-12-20T09:42:22.199Z,1.20
2018-12-20T09:43:25.014Z,1.30
2018-12-20T09:44:27.663Z,1.27
2018-12-20T09:45:30.120Z,1.53
2018-12-20T09:46:32.596Z,1.50
2018-12-20T09:47:40.772Z,1.47
2018-12-20T09:48:43.250Z,1.20
2018-12-20T09:49:45.734Z,1.40
2018-12-20T09:50:48.301Z,1.27
2018-12-20T09:51:50.800Z,1.20
2018-12-20T09:52:53.265Z,1.27
2018-12-20T09:53:55.734Z,1.63
2018-12-20T09:54:58.217Z,1.30
2018-12-20T09:56:00.684Z,1.33
2018-12-20T09:57:03.241Z,1.17
2018-12-20T09:58:05.720Z,1.40
2018-12-20T09:59:08.180Z,1.40
2018-12-20T10:00:10.709Z,1.53
2018-12-20T10:01:13.204Z,1.30
2018-12-20T10:02:15.692Z,1.60
2018-12-20T10:03:18.177Z,1.50
2018-12-20T10:04:20.658Z,1.37
2018-12-20T10:05:23.145Z,1.20
2018-12-20T10:06:25.636Z,1.30
2018-12-20T10:07:28.142Z,1.30
2018-12-20T10:08:30.621Z,1.50
2018-12-20T10:09:33.090Z,1.40
2018-12-20T10:10:35.566Z,1.40
2018-12-20T10:11:38.068Z,1.40
2018-12-20T10:12:40.554Z,1.40
2018-12-20T10:13:43.024Z,1.40
2018-12-20T10:14:45.513Z,1.40
2018-12-20T10:15:47.972Z,1.17
2018-12-20T10:16:50.447Z,1.20
2018-12-20T10:17:52.943Z,1.43
2018-12-20T10:18:55.418Z,1.17
2018-12-20T10:19:57.898Z,1.40
2018-12-20T10:21:00.388Z,1.13
2018-12-20T10:22:02.867Z,1.30
2018-12-20T10:23:05.378Z,1.47
2018-12-20T10:24:07.858Z,1.20
2018-12-20T10:25:10.421Z,1.57
2018-12-20T10:26:12.893Z,1.33
2018-12-20T10:27:15.362Z,1.37
2018-12-20T10:28:17.840Z,1.23
2018-12-20T10:29:20.310Z,1.10
2018-12-20T10:30:22.772Z,1.47
2018-12-20T10:31:25.236Z,1.30
2018-12-20T10:32:27.790Z,1.20
2018-12-20T10:33:30.283Z,1.40
2018-12-20T10:34:32.759Z,1.20
2018-12-20T10:35:36.794Z,1.37
2018-12-20T10:36:39.286Z,1.20
2018-12-20T10:37:41.777Z,1.30
2018-12-20T10:38:44.271Z,1.30
2018-12-20T10:39:46.765Z,1.30
2018-12-20T10:40:49.233Z,1.27
2018-12-20T10:41:51.706Z,1.40
2018-12-20T10:42:54.271Z,1.30
2018-12-20T10:43:56.815Z,1.43
2018-12-20T10:44:59.290Z,1.27
2018-12-20T10:46:01.781Z,1.37
2018-12-20T10:47:09.971Z,1.40
2018-12-20T10:48:12.430Z,1.30
2018-12-20T10:49:14.998Z,1.20
2018-12-20T10:50:17.464Z,1.13
2018-12-20T10:51:19.938Z,1.30
2018-12-20T10:52:22.414Z,1.30
2018-12-20T10:53:24.887Z,1.20
2018-12-20T10:54:27.368Z,1.23
2018-12-20T10:55:29.846Z,1.30
2018-12-20T10:56:32.372Z,1.20
2018-12-20T10:57:34.829Z,1.20
2018-12-20T10:58:37.338Z,1.20
2018-12-20T10:59:39.857Z,1.30
2018-12-20T11:00:48.022Z,1.00
2018-12-20T11:01:52.634Z,1.30
2018-12-20T11:03:00.779Z,1.30
2018-12-20T11:04:08.786Z,1.07
2018-12-20T11:05:16.869Z,1.10
2018-12-20T11:06:25.030Z,1.20
2018-12-20T11:07:33.230Z,1.20
2018-12-20T11:08:37.693Z,1.10
2018-12-20T11:09:45.854Z,1.03
2018-12-20T11:10:50.391Z,1.40
2018-12-20T11:11:58.506Z,1.00
2018-12-20T11:13:02.944Z,1.27
2018-12-20T11:14:05.403Z,1.30
2018-12-20T11:15:08.003Z,1.30
2018-12-20T11:16:10.497Z,1.30
2018-12-20T11:17:12.988Z,1.27
2018-12-20T11:18:15.458Z,1.50
2018-12-20T11:19:17.930Z,1.40
2018-12-20T11:20:20.414Z,1.20
2018-12-20T11:21:22.888Z,1.47
2018-12-20T11:22:25.426Z,1.20
2018-12-20T11:23:27.879Z,1.00
2018-12-20T11:24:30.339Z,1.30
2018-12-20T11:25:32.792Z,1.30
2018-12-20T11:26:35.290Z,1.10
2018-12-20T11:27:37.782Z,1.27
2018-12-20T11:28:40.503Z,1.20
2018-12-20T11:29:43.005Z,1.20
2018-12-20T11:30:45.469Z,1.20
2018-12-20T11:31:47.941Z,1.30
2018-12-20T11:32:50.410Z,1.20
2018-12-20T11:33:52.884Z,1.20
2018-12-20T11:34:55.354Z,1.30
2018-12-20T11:35:57.834Z,1.20
2018-12-20T11:37:00.329Z,1.30
2018-12-20T11:38:02.821Z,1.30
2018-12-20T11:39:08.484Z,1.30
2018-12-20T11:40:10.920Z,1.20
2018-12-20T11:41:13.391Z,1.20
2018-12-20T11:42:16.099Z,1.17
2018-12-20T11:43:18.639Z,1.30
2018-12-20T11:44:21.128Z,1.20
2018-12-20T11:45:23.606Z,1.30
2018-12-20T11:46:26.074Z,1.07
2018-12-20T11:47:28.810Z,1.10
2018-12-20T11:48:31.384Z,1.10
2018-12-20T11:49:33.854Z,1.00
2018-12-20T11:50:36.326Z,1.33
2018-12-20T11:51:38.820Z,1.00
2018-12-20T11:52:42.401Z,1.10
2018-12-20T11:53:45.362Z,1.07
2018-12-20T11:54:47.834Z,1.30
2018-12-20T11:55:50.330Z,1.07
2018-12-20T11:56:52.787Z,1.00
2018-12-20T11:57:55.298Z,1.20
2018-12-20T11:58:57.797Z,1.20
2018-12-20T12:00:00.270Z,1.13
2018-12-20T12:01:02.858Z,1.30
2018-12-20T12:02:05.416Z,1.20
2018-12-20T12:03:07.929Z,1.10
2018-12-20T12:04:10.436Z,1.00
2018-12-20T12:05:12.899Z,1.20
2018-12-20T12:06:15.378Z,1.00
2018-12-20T12:07:17.867Z,1.00
2018-12-20T12:08:20.381Z,1.00
2018-12-20T12:09:22.850Z,0.90
2018-12-20T12:10:25.312Z,1.10
2018-12-20T12:11:27.789Z,1.10
2018-12-20T12:12:30.271Z,1.20
2018-12-20T12:13:32.767Z,1.03
2018-12-20T12:14:35.245Z,1.10
2018-12-20T12:15:37.721Z,1.20
2018-12-20T12:16:40.206Z,1.30
2018-12-20T12:17:42.696Z,1.30
2018-12-20T12:18:45.193Z,1.33
2018-12-20T12:19:47.715Z,0.93
2018-12-20T12:20:50.209Z,0.90
2018-12-20T12:21:52.668Z,0.97
2018-12-20T12:22:55.124Z,1.13
2018-12-20T12:23:57.633Z,1.23
2018-12-20T12:25:00.092Z,1.20
2018-12-20T12:26:02.551Z,1.00
2018-12-20T12:27:05.018Z,1.13
2018-12-20T12:28:07.494Z,1.00
2018-12-20T12:29:10.019Z,1.10
2018-12-20T12:30:12.567Z,1.27
2018-12-20T12:31:15.125Z,0.80
2018-12-20T12:32:17.579Z,1.27
2018-12-20T12:33:20.047Z,1.20
2018-12-20T12:34:22.546Z,1.00
2018-12-20T12:35:25.049Z,0.90
2018-12-20T12:36:27.604Z,0.90
2018-12-20T12:37:30.097Z,0.90
2018-12-20T12:38:32.586Z,0.97
2018-12-20T12:39:35.158Z,1.37
2018-12-20T12:40:37.647Z,1.50
2018-12-20T12:41:40.124Z,1.37
2018-12-20T12:42:42.613Z,1.10
2018-12-20T12:43:45.075Z,1.07
2018-12-20T12:44:47.566Z,1.20
2018-12-20T12:45:50.041Z,1.10
2018-12-20T12:46:52.519Z,1.00
2018-12-20T12:48:03.615Z,1.07
2018-12-20T12:49:05.103Z,1.00
2018-12-20T12:50:07.738Z,1.10
2018-12-20T12:51:10.572Z,1.10
2018-12-20T12:52:13.046Z,1.07
2018-12-20T12:53:15.527Z,1.23
2018-12-20T12:54:18.017Z,1.30
2018-12-20T12:55:20.517Z,1.03
2018-12-20T12:56:22.976Z,1.13
2018-12-20T12:57:25.465Z,0.90
2018-12-20T12:58:27.938Z,1.10
2018-12-20T12:59:30.428Z,1.10
2018-12-20T13:00:32.933Z,1.13
2018-12-20T13:01:35.425Z,1.10
2018-12-20T13:02:37.898Z,1.00
2018-12-20T13:03:40.442Z,1.20
2018-12-20T13:04:42.904Z,1.10
2018-12-20T13:05:45.399Z,1.00
2018-12-20T13:06:47.894Z,1.00
2018-12-20T13:07:50.347Z,0.83
2018-12-20T13:08:52.819Z,1.00
2018-12-20T13:09:55.297Z,1.20
2018-12-20T13:10:58.409Z,0.90
2018-12-20T13:12:01.105Z,1.00
2018-12-20T13:13:03.561Z,1.30
2018-12-20T13:14:06.045Z,1.10
2018-12-20T13:15:10.666Z,1.23
2018-12-20T13:16:13.148Z,1.30
2018-12-20T13:17:15.652Z,1.10
2018-12-20T13:18:18.126Z,1.17
2018-12-20T13:19:20.606Z,1.00
2018-12-20T13:20:23.084Z,1.03
2018-12-20T13:21:25.556Z,1.00
2018-12-20T13:22:28.109Z,1.10
2018-12-20T13:23:30.588Z,0.90
2018-12-20T13:24:33.059Z,0.80
2018-12-20T13:25:35.549Z,1.07
2018-12-20T13:26:38.034Z,1.00
2018-12-20T13:27:40.515Z,0.93
2018-12-20T13:28:43.005Z,0.80
2018-12-20T13:29:45.482Z,1.10
2018-12-20T13:30:47.954Z,0.90
2018-12-20T13:31:50.428Z,1.00
2018-12-20T13:32:52.897Z,1.00
2018-12-20T13:33:55.361Z,1.10
2018-12-20T13:34:57.816Z,1.10
2018-12-20T13:36:00.309Z,0.93
2018-12-20T13:37:02.830Z,1.00
2018-12-20T13:38:05.385Z,0.90
2018-12-20T13:39:07.868Z,1.10
2018-12-20T13:40:10.353Z,0.80
2018-12-20T13:41:12.827Z,1.10
2018-12-20T13:42:15.333Z,1.03
2018-12-20T13:43:17.843Z,1.13
2018-12-20T13:44:20.315Z,1.00
2018-12-20T13:45:22.791Z,1.03
2018-12-20T13:46:25.254Z,1.10
2018-12-20T13:47:27.723Z,1.07
2018-12-20T13:48:30.223Z,1.00
2018-12-20T13:49:32.695Z,0.90
2018-12-20T13:50:35.188Z,0.87
2018-12-20T13:51:37.716Z,1.10
2018-12-20T13:52:40.239Z,1.00
2018-12-20T13:53:42.787Z,1.30
2018-12-20T13:54:45.272Z,1.10